Latest Weather Observations for Port Fairy

IDV60801

Issued at 10:02 am EST Saturday 29 August 2015 (issued every 30 minutes, with the page automatically refreshed every 10 minutes)

About weather observations | Map of weather stations | Latest weather observations for VIC | Other Formats
Station Details ID: 090175 Name: PORT FAIRY AWS Lat: -38.39 Lon: 142.23 Height: 10.0 m
Data from the previous 72 hours. | See also: Recent months at Port Fairy
Date/Time
EST
Temp
°C
App
Temp
°C
Dew
Point
Rel
Hum
%
Delta-T
°C
Wind Press
QNH
hPa
Press
MSL
hPa
Rain
since 9 am
mm
Dir
 
Spd
km/h
Gust
km/h
Spd
kts
Gust
kts
29/10:00am 9.8 5.0 5.8 76 1.8 S 20 32 11 17 1029.7 1029.8 0.0
29/09:30am 9.8 4.6 3.8 66 2.6 S 20 32 11 17 1029.8 1029.9 0.0
29/09:00am 8.8 3.9 4.0 72 2.1 SSE 19 32 10 17 1029.9 1030.0 2.6
29/08:30am 9.0 2.7 4.0 71 2.2 S 26 35 14 19 1029.7 1029.8 2.6
29/08:00am 9.4 3.9 1.8 59 3.1 S 20 32 11 17 1029.4 1029.5 2.6
29/07:30am 9.2 3.1 0.6 55 3.5 S 22 33 12 18 1029.4 1029.5 2.6
29/07:00am 9.2 3.0 1.9 60 3.0 S 24 33 13 18 1029.0 1029.1 2.6
29/06:30am 9.0 3.4 1.2 58 3.2 SSE 20 32 11 17 1028.8 1028.9 2.6
29/06:00am 9.1 2.7 0.8 56 3.3 SSE 24 35 13 19 1028.6 1028.7 2.6
29/05:30am 9.2 2.3 0.4 54 3.5 SSE 26 33 14 18 1028.5 1028.6 2.6
29/05:00am 9.3 3.9 1.5 58 3.2 SSE 19 28 10 15 1028.5 1028.6 2.6
29/04:30am 9.2 3.7 1.9 60 3.0 SSE 20 30 11 16 1028.4 1028.5 2.6
29/04:00am 8.9 2.3 -0.4 52 3.6 SSE 24 33 13 18 1028.4 1028.5 2.6
29/03:30am 8.8 3.3 0.3 55 3.4 SSE 19 24 10 13 1028.5 1028.6 2.6
29/03:00am 9.2 2.4 0.9 56 3.3 SSE 26 39 14 21 1028.7 1028.8 2.6
29/02:30am 9.3 3.0 1.5 58 3.2 SSE 24 33 13 18 1028.9 1029.0 2.6
29/02:00am 9.4 2.3 1.6 58 3.2 SE 28 39 15 21 1028.9 1029.0 2.6
29/01:30am 9.3 2.6 1.5 58 3.2 SE 26 37 14 20 1029.1 1029.2 2.6
29/01:00am 9.3 2.6 1.5 58 3.2 SE 26 41 14 22 1029.1 1029.2 2.6
29/12:30am 9.4 3.2 2.0 60 3.1 SE 24 33 13 18 1029.0 1029.1 2.6
29/12:00am 9.5 2.6 2.4 61 3.0 SE 28 41 15 22 1029.0 1029.1 2.6
 
Date/Time
EST
Temp
°C
App
Temp
°C
Dew
Point
Rel
Hum
%
Delta-T
°C
Wind Press
QNH
hPa
Press
MSL
hPa
Rain
since 9 am
mm
Dir
 
Spd
km/h
Gust
km/h
Spd
kts
Gust
kts
28/11:30pm 9.5 2.8 1.7 58 3.2 SE 26 39 14 21 1029.2 1029.3 2.6
28/11:00pm 9.0 1.2 1.4 59 3.1 SE 32 41 17 22 1029.2 1029.3 2.6
28/10:30pm 9.5 2.2 2.6 62 2.9 SSE 30 43 16 23 1029.2 1029.3 2.6
28/10:00pm 9.2 2.1 1.6 59 3.1 SE 28 37 15 20 1029.2 1029.3 2.6
28/09:30pm 9.1 1.3 1.5 59 3.1 SSE 32 41 17 22 1029.2 1029.3 2.6
28/09:00pm 9.3 2.8 2.4 62 2.9 SE 26 35 14 19 1029.0 1029.1 2.6
28/08:30pm 9.1 2.1 2.2 62 2.9 SE 28 39 15 21 1029.0 1029.1 2.6
28/08:00pm 9.4 2.3 3.4 66 2.6 SE 30 41 16 22 1028.6 1028.7 2.6
28/07:30pm 9.5 2.8 3.7 67 2.5 SSE 28 39 15 21 1028.4 1028.5 2.6
28/07:00pm 9.6 2.9 3.8 67 2.5 SE 28 35 15 19 1028.3 1028.4 2.6
28/06:30pm 9.8 3.2 4.2 68 2.5 SE 28 35 15 19 1028.0 1028.1 2.6
28/06:00pm 9.9 3.7 4.5 69 2.4 SE 26 35 14 19 1027.7 1027.8 2.6
28/05:30pm 9.8 3.6 4.4 69 2.4 SE 26 35 14 19 1027.6 1027.7 2.6
28/05:00pm 10.3 4.2 4.9 69 2.4 SE 26 35 14 19 1027.5 1027.6 2.6
28/04:30pm 10.4 4.1 5.6 72 2.2 SE 28 35 15 19 1027.3 1027.4 2.6
28/04:00pm 10.5 3.9 5.9 73 2.1 SE 30 37 16 20 1027.1 1027.2 2.6
28/03:30pm 10.6 4.2 6.9 78 1.8 SE 30 43 16 23 1027.0 1027.1 2.6
28/03:00pm 10.2 4.0 7.8 85 1.1 SE 30 37 16 20 1026.9 1027.0 2.6
28/02:30pm 9.9 4.3 8.7 92 0.6 SE 28 37 15 20 1027.0 1027.1 2.6
28/02:00pm 9.9 4.3 8.7 92 0.6 SE 28 39 15 21 1027.1 1027.2 2.4
28/01:30pm 10.7 6.8 8.5 86 1.1 S 19 24 10 13 1027.1 1027.2 0.6
28/01:00pm 12.9 9.0 8.6 75 2.1 SW 19 24 10 13 1027.3 1027.4 0.0
28/12:30pm 12.0 7.9 7.9 76 2.0 SSW 19 24 10 13 1027.6 1027.7 0.0
28/12:00pm 12.6 8.9 8.1 74 2.2 SW 17 22 9 12 1027.8 1027.9 0.0
28/11:30am 12.6 8.7 8.5 76 2.0 SW 19 24 10 13 1027.9 1028.0 0.0
28/11:00am 13.6 11.0 7.6 67 2.9 SSW 11 17 6 9 1028.0 1028.1 0.0
28/10:30am 12.9 10.1 7.1 68 2.8 SSW 11 17 6 9 1028.1 1028.2 0.0
28/10:00am 12.6 8.6 6.6 67 2.8 S 17 22 9 12 1028.1 1028.2 0.0
28/09:30am 12.0 7.9 6.3 68 2.7 S 17 24 9 13 1028.0 1028.1 0.0
28/09:00am 11.7 7.1 5.8 67 2.7 S 19 26 10 14 1027.9 1028.0 0.2
28/08:30am 11.6 7.4 5.9 68 2.7 S 17 24 9 13 1027.7 1027.8 0.2
28/08:00am 11.4 7.6 5.9 69 2.5 S 15 20 8 11 1027.5 1027.6 0.2
28/07:30am 11.2 6.9 5.1 66 2.8 S 17 22 9 12 1027.3 1027.4 0.2
28/07:00am 10.9 5.5 4.4 64 2.9 SSE 22 30 12 16 1027.1 1027.2 0.2
28/06:30am 10.9 5.9 4.6 65 2.8 S 20 32 11 17 1026.9 1027.0 0.2
28/06:00am 11.1 5.4 5.0 66 2.8 SSE 24 33 13 18 1026.6 1026.7 0.2
28/05:30am 10.9 6.9 5.0 67 2.7 SSW 15 26 8 14 1026.4 1026.5 0.2
28/05:00am 10.8 5.1 4.9 67 2.7 SSW 24 33 13 18 1026.3 1026.4 0.2
28/04:30am 10.8 5.9 4.9 67 2.7 S 20 28 11 15 1026.1 1026.2 0.2
28/04:00am 10.8 5.8 6.6 75 2.0 S 22 30 12 16 1026.0 1026.1 0.2
28/03:30am 10.8 5.5 6.9 77 1.8 S 24 37 13 20 1026.1 1026.2 0.2
28/03:00am 10.6 5.7 7.1 79 1.7 S 22 33 12 18 1026.4 1026.5 0.2
28/02:30am 10.5 5.0 7.7 83 1.3 S 26 41 14 22 1026.5 1026.6 0.2
28/02:00am 10.2 4.4 7.8 85 1.1 S 28 35 15 19 1026.6 1026.7 0.2
28/01:30am 10.8 6.2 8.2 84 1.3 S 22 32 12 17 1026.5 1026.6 0.2
28/01:00am 10.8 6.2 8.0 83 1.3 S 22 33 12 18 1026.5 1026.6 0.2
28/12:30am 11.0 5.7 8.4 84 1.3 S 26 35 14 19 1026.3 1026.4 0.2
28/12:00am 11.1 6.9 8.3 83 1.4 S 20 32 11 17 1026.2 1026.3 0.2
 
Date/Time
EST
Temp
°C
App
Temp
°C
Dew
Point
Rel
Hum
%
Delta-T
°C
Wind Press
QNH
hPa
Press
MSL
hPa
Rain
since 9 am
mm
Dir
 
Spd
km/h
Gust
km/h
Spd
kts
Gust
kts
27/11:30pm 11.5 6.4 7.8 78 1.8 S 24 33 13 18 1026.3 1026.4 0.0
27/11:00pm 11.4 6.9 8.4 82 1.5 S 22 32 12 17 1026.3 1026.4 0.0
27/10:30pm 11.3 6.0 8.5 83 1.4 S 26 33 14 18 1026.1 1026.2 0.0
27/10:00pm 11.8 6.8 7.9 77 1.9 S 24 35 13 19 1026.2 1026.3 0.0
27/09:30pm 12.0 6.9 7.7 75 2.1 SSE 24 32 13 17 1026.1 1026.2 0.0
27/09:00pm 11.9 6.5 8.0 77 1.9 SSE 26 33 14 18 1025.9 1026.0 0.0
27/08:30pm 11.9 6.2 8.4 79 1.7 SSE 28 35 15 19 1025.7 1025.8 0.0
27/08:00pm 12.1 6.0 8.2 77 1.9 SSE 30 35 16 19 1025.3 1025.3 0.0
27/07:30pm 11.9 6.0 8.9 82 1.5 SSE 30 39 16 21 1025.0 1025.0 0.0
27/07:00pm 11.9 5.6 8.9 82 1.5 SSE 32 41 17 22 1024.8 1024.8 0.0
27/06:30pm 11.9 5.5 9.3 84 1.3 SSE 33 46 18 25 1024.3 1024.3 0.0
27/06:00pm 12.1 5.7 9.5 84 1.3 S 33 43 18 23 1023.9 1023.9 0.0
27/05:30pm 12.1 5.4 9.5 84 1.3 SSE 35 43 19 23 1023.4 1023.4 0.0
27/05:00pm 12.3 6.6 9.9 85 1.2 S 30 39 16 21 1023.1 1023.1 0.0
27/04:30pm 12.5 6.9 10.0 85 1.3 SSE 30 39 16 21 1022.6 1022.6 0.0
27/04:00pm 12.7 8.2 10.2 85 1.3 S 24 33 13 18 1022.3 1022.3 0.0
27/03:30pm 13.0 9.4 10.5 85 1.3 SSW 20 26 11 14 1022.2 1022.2 0.0
27/03:00pm 13.5 10.4 10.3 81 1.7 SSW 17 24 9 13 1022.1 1022.1 0.0
27/02:30pm 13.8 10.4 10.4 80 1.8 SSW 19 24 10 13 1022.2 1022.2 0.0
27/02:00pm 14.4 12.3 11.0 80 1.8 SSW 13 20 7 11 1022.1 1022.1 0.0
27/01:30pm 14.5 12.2 10.5 77 2.1 SSW 13 20 7 11 1022.3 1022.3 0.0
27/01:00pm 14.2 11.9 10.4 78 2.0 SSW 13 19 7 10 1022.4 1022.4 0.0
27/12:30pm 14.5 13.3 11.7 83 1.5 SW 9 13 5 7 1022.6 1022.6 0.0
27/12:00pm 13.5 11.7 10.9 84 1.4 WSW 11 15 6 8 1022.9 1022.9 0.0
27/11:30am 13.3 9.9 10.5 83 1.5 WSW 19 22 10 12 1022.9 1022.9 0.0
27/11:00am 13.2 10.6 10.6 84 1.3 WSW 15 19 8 10 1022.9 1022.9 0.0
27/10:30am 13.0 10.9 11.2 89 0.9 WSW 13 17 7 9 1022.9 1022.9 0.0
27/10:00am 12.8 11.0 12.0 95 0.4 WSW 13 15 7 8 1022.9 1022.9 0.0
27/09:30am 11.9 11.1 11.7 99 0.1 WNW 7 9 4 5 1022.9 1022.9 0.0
27/09:00am 10.3 9.2 10.1 99 0.1 NW 6 9 3 5 1022.8 1022.8 0.0
27/08:30am 8.7 7.2 8.6 99 0.0 NNW 6 7 3 4 1022.8 1022.8 0.0
27/08:00am 7.4 5.4 7.1 98 0.1 NNE 7 11 4 6 1022.5 1022.5 0.0
27/07:30am 7.2 5.7 6.9 98 0.1 WNW 4 7 2 4 1022.0 1022.0 0.0
27/07:00am 7.1 5.6 6.8 98 0.1 NW 4 9 2 5 1021.7 1021.7 0.0
27/06:30am 7.1 5.6 6.7 97 0.2 NNE 4 6 2 3 1021.6 1021.6 0.0
27/06:00am 7.2 5.3 6.8 97 0.2 NW 6 9 3 5 1021.3 1021.3 0.0
27/05:30am 7.4 5.0 7.0 97 0.2 WNW 9 13 5 7 1021.0 1021.0 0.0
27/05:00am 7.4 5.0 6.8 96 0.3 WNW 9 13 5 7 1021.0 1021.0 0.0
27/04:30am 7.6 5.2 7.0 96 0.3 WNW 9 13 5 7 1020.9 1020.9 0.0
27/04:00am 7.4 5.5 6.7 95 0.3 NW 6 9 3 5 1021.1 1021.1 0.0
27/03:30am 7.5 5.6 6.6 94 0.4 NW 6 7 3 4 1021.2 1021.2 0.0
27/03:00am 7.7 5.8 6.8 94 0.4 WNW 6 7 3 4 1021.4 1021.4 0.0
27/02:30am 8.1 6.3 7.0 93 0.5 WNW 6 7 3 4 1021.5 1021.5 0.0
27/02:00am 8.6 6.9 7.5 93 0.5 NNW 6 7 3 4 1021.7 1021.7 0.0
27/01:30am 9.3 7.7 8.1 92 0.6 N 6 7 3 4 1021.8 1021.8 0.0
27/01:00am 9.7 8.2 8.3 91 0.7 N 6 9 3 5 1022.1 1022.1 0.0
27/12:30am 10.1 8.7 8.7 91 0.7 N 6 7 3 4 1022.2 1022.2 0.0
27/12:00am 10.4 9.0 8.8 90 0.8 NNE 6 9 3 5 1022.3 1022.3 0.0
 
Date/Time
EST
Temp
°C
App
Temp
°C
Dew
Point
Rel
Hum
%
Delta-T
°C
Wind Press
QNH
hPa
Press
MSL
hPa
Rain
since 9 am
mm
Dir
 
Spd
km/h
Gust
km/h
Spd
kts
Gust
kts
26/11:30pm 10.4 8.8 8.8 90 0.8 N 7 11 4 6 1022.7 1022.7 0.0
26/11:00pm 10.5 9.0 8.6 88 0.9 NNE 6 7 3 4 1022.9 1022.9 0.0
26/10:30pm 11.0 9.7 9.1 88 0.9 NE 6 7 3 4 1023.0 1023.0 0.0
26/10:00pm 11.2 9.9 9.1 87 1.0 NE 6 9 3 5 1023.0 1023.0 0.0
26/09:30pm 11.3 9.9 9.0 86 1.1 NNE 6 9 3 5 1023.1 1023.1 0.0
26/09:00pm 11.7 10.2 9.3 85 1.2 NE 7 11 4 6 1023.1 1023.1 0.0
26/08:30pm 11.8 10.6 9.4 85 1.2 NE 6 11 3 6 1023.1 1023.1 0.0
26/08:00pm 12.1 11.0 10.0 87 1.1 NE 6 9 3 5 1023.1 1023.1 0.0
26/07:30pm 12.3 10.7 10.2 87 1.1 ENE 9 15 5 8 1023.1 1023.1 0.0
26/07:00pm 12.1 10.4 9.8 86 1.2 E 9 13 5 7 1023.0 1023.0 0.0
26/06:30pm 12.1 9.9 9.5 84 1.3 ESE 11 17 6 9 1022.8 1022.8 0.0
26/06:00pm 12.1 9.5 9.3 83 1.4 ESE 13 17 7 9 1022.8 1022.8 0.0
26/05:30pm 12.3 10.1 9.3 82 1.5 ESE 11 19 6 10 1022.7 1022.7 0.0
26/05:00pm 12.5 10.3 9.3 81 1.6 ESE 11 15 6 8 1022.5 1022.5 0.0
26/04:30pm 12.7 10.5 9.3 80 1.7 ESE 11 17 6 9 1022.6 1022.6 0.0
26/04:00pm 13.2 10.3 9.6 79 1.8 SE 15 20 8 11 1022.4 1022.4 0.0
26/03:30pm 13.1 10.5 9.5 79 1.8 SE 13 24 7 13 1022.6 1022.6 0.0
26/03:00pm 13.1 9.8 9.4 78 1.9 SE 17 20 9 11 1022.9 1022.9 0.0
26/02:30pm 12.7 9.7 9.2 79 1.8 SE 15 20 8 11 1023.1 1023.1 0.0
26/02:00pm 13.5 10.6 9.6 77 2.0 ESE 15 20 8 11 1023.3 1023.3 0.0
26/01:30pm 12.6 9.8 8.7 77 1.9 ESE 13 19 7 10 1023.6 1023.6 0.0
26/01:00pm 12.7 9.9 8.6 76 2.0 ESE 13 20 7 11 1023.7 1023.7 0.0
26/12:30pm 13.1 10.5 9.4 78 1.9 E 13 20 7 11 1024.4 1024.4 0.0
26/12:00pm 12.4 9.6 8.5 77 1.9 ENE 13 22 7 12 1025.2 1025.2 0.0
26/11:30am 12.2 9.0 8.5 78 1.8 E 15 22 8 12 1025.5 1025.5 0.0
26/11:00am 12.1 9.7 8.6 79 1.7 ENE 11 17 6 9 1025.8 1025.9 0.0
26/10:30am 11.4 8.2 8.3 81 1.5 ENE 15 20 8 11 1026.1 1026.2 0.0

Other Formats:

Comma delimited format used in spreadsheet applications
http://www.bom.gov.au/fwo/IDV60801/IDV60801.94830.axf

JavaScript Object Notation format (JSON) in row-major order
http://www.bom.gov.au/fwo/IDV60801/IDV60801.94830.json